Observation data for Tulia on 04/22/2019      Previous  Date  Next       Current Mesonet Observations  Soil Data  Daily Summary Page  Observations in Plain Language
KTIS 220500Z 20006KT 17/M02 A2988 RMK A01 T01651017  RH  029%=      5-min Rain = 0
KTIS 220505Z 19007KT 16/M02 A2988 RMK A01 T01591016  RH  030%=      5-min Rain = 0
KTIS 220510Z 20007KT 16/M02 A2988 RMK A01 T01551016  RH  031%=      5-min Rain = 0
KTIS 220515Z 22008KT 15/M02 A2988 RMK A01 T01541017  RH  031%=      5-min Rain = 0
KTIS 220520Z 22007KT 16/M02 A2988 RMK A01 T01591020  RH  029%=      5-min Rain = 0
KTIS 220525Z 21006KT 16/M02 A2988 RMK A01 T01641021  RH  028%=      5-min Rain = 0
KTIS 220530Z 20005KT 16/M02 A2988 RMK A01 T01561017  RH  031%=      5-min Rain = 0
KTIS 220535Z 19006KT 15/M01 A2988 RMK A01 T01461012  RH  034%=      5-min Rain = 0
KTIS 220540Z 19007KT 14/M01 A2988 RMK A01 T01391013  RH  035%=      5-min Rain = 0
KTIS 220545Z 19006KT 14/M02 A2988 RMK A01 T01421016  RH  034%=      5-min Rain = 0
KTIS 220550Z 18007KT 14/M01 A2989 RMK A01 T01381012  RH  036%=      5-min Rain = 0
KTIS 220555Z 19006KT 14/M02 A2989 RMK A01 T01361016  RH  035%=      5-min Rain = 0
KTIS 220600Z 19008KT 13/M02 A2989 RMK A01 T01301017  RH  037%=      5-min Rain = 0
KTIS 220605Z 19008KT 13/M02 A2989 RMK A01 T01321017  RH  036%=      5-min Rain = 0
KTIS 220610Z 21008KT 14/M02 A2989 RMK A01 T01351017  RH  035%=      5-min Rain = 0
KTIS 220615Z 22007KT 14/M02 A2989 RMK A01 T01361016  RH  035%=      5-min Rain = 0
KTIS 220620Z 24008KT 14/M02 A2989 RMK A01 T01351016  RH  035%=      5-min Rain = 0
KTIS 220625Z 29009KT 13/M01 A2989 RMK A01 T01271011  RH  039%=      5-min Rain = 0
KTIS 220630Z 29008KT 13/M01 A299 RMK A01 T01261009  RH  040%=      5-min Rain = 0
KTIS 220635Z 27006KT 12/M01 A2989 RMK A01 T01241010  RH  040%=      5-min Rain = 0
KTIS 220640Z 27003KT 12/M01 A2989 RMK A01 T01241011  RH  040%=      5-min Rain = 0
KTIS 220645Z 29004KT 12/M01 A2989 RMK A01 T01201009  RH  041%=      5-min Rain = 0
KTIS 220650Z 30006KT 11/M01 A2989 RMK A01 T01081009  RH  045%=      5-min Rain = 0
KTIS 220655Z 28005KT 11/M01 A2989 RMK A01 T01111010  RH  044%=      5-min Rain = 0
KTIS 220700Z 26004KT 11/M01 A2989 RMK A01 T01111011  RH  043%=      5-min Rain = 0
KTIS 220705Z 23006KT 11/M01 A2989 RMK A01 T01081012  RH  044%=      5-min Rain = 0
KTIS 220710Z 22006KT 12/M01 A2988 RMK A01 T01161014  RH  041%=      5-min Rain = 0
KTIS 220715Z 21007KT 11/M01 A2988 RMK A01 T01141012  RH  042%=      5-min Rain = 0
KTIS 220720Z 21007KT 12/M01 A2988 RMK A01 T01171014  RH  041%=      5-min Rain = 0
KTIS 220725Z 22009KT 13/M02 A2987 RMK A01 T01321018  RH  036%=      5-min Rain = 0
KTIS 220730Z 22009KT 14/M02 A2987 RMK A01 T01391019  RH  034%=      5-min Rain = 0
KTIS 220735Z 23010KT 14/M02 A2987 RMK A01 T01401019  RH  033%=      5-min Rain = 0
KTIS 220740Z 23009KT 14/M02 A2987 RMK A01 T01421020  RH  033%=      5-min Rain = 0
KTIS 220745Z 24009KT 14/M02 A2987 RMK A01 T01421021  RH  033%=      5-min Rain = 0
KTIS 220750Z 25009KT 15/M02 A2987 RMK A01 T01461021  RH  032%=      5-min Rain = 0
KTIS 220755Z 26010KT 15/M02 A2987 RMK A01 T01471021  RH  032%=      5-min Rain = 0
KTIS 220800Z 25010KT 15/M02 A2987 RMK A01 T01481021  RH  031%=      5-min Rain = 0
KTIS 220805Z 20010KT 15/M02 A2987 RMK A01 T01451018  RH  033%=      5-min Rain = 0
KTIS 220810Z 18012G19KT 13/M01 A2988 RMK A01 T01261014  RH  038%=      5-min Rain = 0
KTIS 220815Z 23006G11KT 13/M02 A299 RMK A01 T01311016  RH  036%=      5-min Rain = 0
KTIS 220820Z 30005G10KT 13/M02 A2991 RMK A01 T01271016  RH  037%=      5-min Rain = 0
KTIS 220825Z 30005KT 13/M02 A2991 RMK A01 T01281016  RH  037%=      5-min Rain = 0
KTIS 220830Z 34007KT 13/M02 A299 RMK A01 T01321015  RH  036%=      5-min Rain = 0
KTIS 220835Z 35009KT 12/M01 A2991 RMK A01 T01201012  RH  040%=      5-min Rain = 0
KTIS 220840Z 34007KT 11/M01 A2991 RMK A01 T01121010  RH  043%=      5-min Rain = 0
KTIS 220845Z 29004KT 11/M01 A2992 RMK A01 T01091007  RH  045%=      5-min Rain = 0
KTIS 220850Z 18004KT 11/M00 A2993 RMK A01 T01051004  RH  047%=      5-min Rain = 0
KTIS 220855Z 27002KT 11/M01 A2993 RMK A01 T01141006  RH  044%=      5-min Rain = 0
KTIS 220900Z 36004KT 11/00 A2993 RMK A01 T01130002  RH  047%=      5-min Rain = 0
KTIS 220905Z 28004KT 11/00 A2993 RMK A01 T01060003  RH  050%=      5-min Rain = 0
KTIS 220910Z 24005KT 10/01 A2995 RMK A01 T01010007  RH  053%=      5-min Rain = 0
KTIS 220915Z 29005KT 10/02 A2996 RMK A01 T01030015  RH  055%=      5-min Rain = 0
KTIS 220920Z 32005KT 10/02 A2995 RMK A01 T00980016  RH  058%=      5-min Rain = 0
KTIS 220925Z 31003KT 10/02 A2996 RMK A01 T00950019  RH  060%=      5-min Rain = 0
KTIS 220930Z 33005KT 09/02 A2996 RMK A01 T00930018  RH  060%=      5-min Rain = 0
KTIS 220935Z 32004KT 09/02 A2997 RMK A01 T00870019  RH  063%=      5-min Rain = 0
KTIS 220940Z 32004KT 09/02 A2997 RMK A01 T00870021  RH  064%=      5-min Rain = 0
KTIS 220945Z 32005KT 09/02 A2997 RMK A01 T00860019  RH  064%=      5-min Rain = 0
KTIS 220950Z 32006KT 08/02 A2997 RMK A01 T00830019  RH  065%=      5-min Rain = 0
KTIS 220955Z 31006KT 08/02 A2997 RMK A01 T00780019  RH  067%=      5-min Rain = 0
KTIS 221000Z 31006KT 08/02 A2997 RMK A01 T00800023  RH  068%=      5-min Rain = 0
KTIS 221005Z 30006KT 08/02 A2998 RMK A01 T00790024  RH  069%=      5-min Rain = 0
KTIS 221010Z 30005KT 08/03 A2998 RMK A01 T00810028  RH  071%=      5-min Rain = 0
KTIS 221015Z 30006KT 08/03 A2998 RMK A01 T00800030  RH  072%=      5-min Rain = 0
KTIS 221020Z 31006KT 08/03 A2998 RMK A01 T00790032  RH  074%=      5-min Rain = 0
KTIS 221025Z 33006KT 08/03 A2998 RMK A01 T00760031  RH  074%=      5-min Rain = 0
KTIS 221030Z 35010KT 07/03 A2998 RMK A01 T00740033  RH  077%=      5-min Rain = 0
KTIS 221035Z 35010KT 08/04 A2998 RMK A01 T00810041  RH  077%=      5-min Rain = 0
KTIS 221040Z 35009KT 08/04 A2998 RMK A01 T00840042  RH  076%=      5-min Rain = 0
KTIS 221045Z 35010KT 08/04 A2997 RMK A01 T00830043  RH  078%=      5-min Rain = 0
KTIS 221050Z 35009KT 08/05 A2997 RMK A01 T00820045  RH  079%=      5-min Rain = 0
KTIS 221055Z 34008KT 08/04 A2998 RMK A01 T00780043  RH  080%=      5-min Rain = 0
KTIS 221100Z 32007KT 08/05 A2998 RMK A01 T00790046  RH  081%=      5-min Rain = 0
KTIS 221105Z 32008KT 08/05 A2999 RMK A01 T00840048  RH  080%=      5-min Rain = 0
KTIS 221110Z 32009KT 09/05 A2999 RMK A01 T00860048  RH  079%=      5-min Rain = 0
KTIS 221115Z 33011KT 09/05 A2999 RMK A01 T00890050  RH  078%=      5-min Rain = 0
KTIS 221120Z 33010KT 09/05 A2999 RMK A01 T00900052  RH  079%=      5-min Rain = 0
KTIS 221125Z 33010KT 09/05 A2999 RMK A01 T00880052  RH  080%=      5-min Rain = 0
KTIS 221130Z 33010KT 09/05 A2999 RMK A01 T00870051  RH  080%=      5-min Rain = 0
KTIS 221135Z 33011KT 09/05 A2999 RMK A01 T00850051  RH  081%=      5-min Rain = 0
KTIS 221140Z 34011KT 09/05 A2999 RMK A01 T00850051  RH  081%=      5-min Rain = 0
KTIS 221145Z 34012KT 09/05 A2999 RMK A01 T00860051  RH  081%=      5-min Rain = 0
KTIS 221150Z 34012KT 09/05 A2999 RMK A01 T00860051  RH  080%=      5-min Rain = 0
KTIS 221155Z 35012KT 09/05 A30 RMK A01 T00880051  RH  080%=      5-min Rain = 0
KTIS 221200Z 35011KT 09/05 A30 RMK A01 T00900051  RH  078%=      5-min Rain = 0
KTIS 221205Z 35011KT 09/05 A30 RMK A01 T00920051  RH  077%=      5-min Rain = 0
KTIS 221210Z 35012KT 09/05 A3001 RMK A01 T00920051  RH  077%=      5-min Rain = 0
KTIS 221215Z 35011KT 09/05 A3001 RMK A01 T00920051  RH  077%=      5-min Rain = 0
KTIS 221220Z 36011KT 09/05 A3001 RMK A01 T00920052  RH  078%=      5-min Rain = 0
KTIS 221225Z 00011KT 09/05 A3001 RMK A01 T00920052  RH  078%=      5-min Rain = 0
KTIS 221230Z 00011KT 09/05 A3001 RMK A01 T00910053  RH  078%=      5-min Rain = 0
KTIS 221235Z 00009KT 09/05 A3002 RMK A01 T00910053  RH  079%=      5-min Rain = 0
KTIS 221240Z 35009KT 09/05 A3003 RMK A01 T00910054  RH  079%=      5-min Rain = 0
KTIS 221245Z 35009KT 09/06 A3003 RMK A01 T00910055  RH  080%=      5-min Rain = 0
KTIS 221250Z 35008KT 09/06 A3003 RMK A01 T00910056  RH  081%=      5-min Rain = 0
KTIS 221255Z 00008KT 09/06 A3004 RMK A01 T00940058  RH  080%=      5-min Rain = 0
KTIS 221300Z 01009KT 10/06 A3004 RMK A01 T00990062  RH  080%=      5-min Rain = 0
KTIS 221305Z 01010KT 10/07 A3004 RMK A01 T01040065  RH  079%=      5-min Rain = 0
KTIS 221310Z 01010G15KT 11/07 A3005 RMK A01 T01070066  RH  078%=      5-min Rain = 0
KTIS 221315Z 01011G16KT 11/07 A3005 RMK A01 T01080067  RH  077%=      5-min Rain = 0
KTIS 221320Z 01013KT 11/07 A3005 RMK A01 T01090067  RH  077%=      5-min Rain = 0
KTIS 221325Z 01012KT 11/07 A3005 RMK A01 T01100068  RH  077%=      5-min Rain = 0
KTIS 221330Z 01012G17KT 11/07 A3005 RMK A01 T01110069  RH  077%=      5-min Rain = 0
KTIS 221335Z 01012G18KT 11/07 A3006 RMK A01 T01120069  RH  077%=      5-min Rain = 0
KTIS 221340Z 01011G17KT 11/07 A3006 RMK A01 T01130070  RH  077%=      5-min Rain = 0
KTIS 221345Z 01013G20KT 11/07 A3006 RMK A01 T01140071  RH  077%=      5-min Rain = 0
KTIS 221350Z 01014KT 12/07 A3006 RMK A01 T01150071  RH  076%=      5-min Rain = 0
KTIS 221355Z 01014G21KT 12/07 A3006 RMK A01 T01170072  RH  076%=      5-min Rain = 0
KTIS 221400Z 01013G20KT 12/07 A3006 RMK A01 T01190073  RH  075%=      5-min Rain = 0
KTIS 221405Z 01013G18KT 12/07 A3007 RMK A01 T01200073  RH  075%=      5-min Rain = 0
KTIS 221410Z 02014G19KT 12/07 A3007 RMK A01 T01200073  RH  075%=      5-min Rain = 0
KTIS 221415Z 02013G20KT 12/07 A3007 RMK A01 T01210074  RH  074%=      5-min Rain = 0
KTIS 221420Z 02015KT 12/07 A3007 RMK A01 T01210073  RH  074%=      5-min Rain = 0
KTIS 221425Z 01013KT 12/07 A3007 RMK A01 T01230074  RH  074%=      5-min Rain = 0
KTIS 221430Z 01013KT 12/07 A3008 RMK A01 T01230074  RH  074%=      5-min Rain = 0
KTIS 221435Z 01014G21KT 12/07 A3008 RMK A01 T01240074  RH  074%=      5-min Rain = 0
KTIS 221440Z 01015G21KT 12/07 A3008 RMK A01 T01240074  RH  073%=      5-min Rain = 0
KTIS 221445Z 01014G19KT 12/08 A3007 RMK A01 T01240075  RH  074%=      5-min Rain = 0
KTIS 221450Z 01014G20KT 13/08 A3008 RMK A01 T01250075  RH  073%=      5-min Rain = 0
KTIS 221455Z 01015KT 13/08 A3008 RMK A01 T01270076  RH  073%=      5-min Rain = 0
KTIS 221500Z 01015G21KT 13/08 A3008 RMK A01 T01280076  RH  072%=      5-min Rain = 0
KTIS 221505Z 01015G22KT 13/08 A3008 RMK A01 T01280076  RH  072%=      5-min Rain = 0
KTIS 221510Z 01015KT 13/08 A3008 RMK A01 T01280076  RH  072%=      5-min Rain = 0
KTIS 221515Z 01014G19KT 13/08 A3008 RMK A01 T01310077  RH  071%=      5-min Rain = 0
KTIS 221520Z 01015G21KT 13/08 A3008 RMK A01 T01320077  RH  071%=      5-min Rain = 0
KTIS 221525Z 01014G21KT 13/08 A3008 RMK A01 T01300076  RH  072%=      5-min Rain = 0
KTIS 221530Z 01014G19KT 13/08 A3008 RMK A01 T01300076  RH  072%=      5-min Rain = 0
KTIS 221535Z 00014G21KT 13/08 A3008 RMK A01 T01320078  RH  072%=      5-min Rain = 0
KTIS 221540Z 01014G21KT 13/08 A3008 RMK A01 T01310077  RH  071%=      5-min Rain = 0
KTIS 221545Z 01014KT 13/08 A3008 RMK A01 T01320077  RH  071%=      5-min Rain = 0
KTIS 221550Z 01013G19KT 14/08 A3009 RMK A01 T01350078  RH  070%=      5-min Rain = 0
KTIS 221555Z 02013G19KT 14/08 A3009 RMK A01 T01350077  RH  070%=      5-min Rain = 0
KTIS 221600Z 01015G20KT 14/08 A3009 RMK A01 T01380078  RH  069%=      5-min Rain = 0
KTIS 221605Z 01013G19KT 14/08 A3009 RMK A01 T01380078  RH  069%=      5-min Rain = 0
KTIS 221610Z 01015G20KT 14/08 A3009 RMK A01 T01400078  RH  068%=      5-min Rain = 0
KTIS 221615Z 01014G19KT 15/08 A3009 RMK A01 T01450080  RH  067%=      5-min Rain = 0
KTIS 221620Z 01014G19KT 15/08 A3009 RMK A01 T01480080  RH  065%=      5-min Rain = 0
KTIS 221625Z 01014KT 15/08 A3008 RMK A01 T01470079  RH  065%=      5-min Rain = 0
KTIS 221630Z 02013KT 15/08 A3008 RMK A01 T01510080  RH  065%=      5-min Rain = 0
KTIS 221635Z 02014G19KT 15/08 A3008 RMK A01 T01530080  RH  063%=      5-min Rain = 0
KTIS 221640Z 02016G21KT 15/08 A3008 RMK A01 T01530079  RH  063%=      5-min Rain = 0
KTIS 221645Z 02014G19KT 15/08 A3008 RMK A01 T01540080  RH  063%=      5-min Rain = 0
KTIS 221650Z 02014KT 16/08 A3009 RMK A01 T01560080  RH  062%=      5-min Rain = 0
KTIS 221655Z 03014G20KT 16/08 A3009 RMK A01 T01580080  RH  061%=      5-min Rain = 0
KTIS 221700Z 03014G19KT 16/08 A3009 RMK A01 T01600079  RH  060%=      5-min Rain = 0
KTIS 221705Z 02013G19KT 16/08 A3009 RMK A01 T01590079  RH  061%=      5-min Rain = 0
KTIS 221710Z 03015G21KT 16/08 A3009 RMK A01 T01610079  RH  060%=      5-min Rain = 0
KTIS 221715Z 02012G19KT 16/08 A3009 RMK A01 T01630081  RH  060%=      5-min Rain = 0
KTIS 221720Z 02015G22KT 16/08 A3009 RMK A01 T01630080  RH  059%=      5-min Rain = 0
KTIS 221725Z 02015G21KT 17/08 A3008 RMK A01 T01650081  RH  059%=      5-min Rain = 0
KTIS 221730Z 02016G22KT 17/08 A3008 RMK A01 T01650080  RH  059%=      5-min Rain = 0
KTIS 221735Z 02017G22KT 17/08 A3008 RMK A01 T01650080  RH  059%=      5-min Rain = 0
KTIS 221740Z 02017G24KT 17/08 A3008 RMK A01 T01670081  RH  058%=      5-min Rain = 0
KTIS 221745Z 03014G21KT 17/08 A3008 RMK A01 T01690082  RH  058%=      5-min Rain = 0
KTIS 221750Z 02017G22KT 17/08 A3007 RMK A01 T01690081  RH  058%=      5-min Rain = 0
KTIS 221755Z 02016G22KT 17/08 A3008 RMK A01 T01700081  RH  057%=      5-min Rain = 0
KTIS 221800Z 02015G20KT 17/08 A3008 RMK A01 T01690080  RH  057%=      5-min Rain = 0
KTIS 221805Z 03014G19KT 17/08 A3008 RMK A01 T01730082  RH  057%=      5-min Rain = 0
KTIS 221810Z 02015KT 17/08 A3008 RMK A01 T01710080  RH  057%=      5-min Rain = 0
KTIS 221815Z 02017G23KT 17/08 A3007 RMK A01 T01710080  RH  057%=      5-min Rain = 0
KTIS 221820Z 02017G22KT 17/08 A3007 RMK A01 T01710079  RH  056%=      5-min Rain = 0
KTIS 221825Z 01015G20KT 17/08 A3007 RMK A01 T01730080  RH  056%=      5-min Rain = 0
KTIS 221830Z 02017G22KT 18/08 A3007 RMK A01 T01750081  RH  055%=      5-min Rain = 0
KTIS 221835Z 02015G23KT 18/08 A3006 RMK A01 T01760081  RH  055%=      5-min Rain = 0
KTIS 221840Z 02016G22KT 18/08 A3006 RMK A01 T01760080  RH  055%=      5-min Rain = 0
KTIS 221845Z 02016G24KT 18/08 A3006 RMK A01 T01760080  RH  055%=      5-min Rain = 0
KTIS 221850Z 02017G22KT 18/08 A3006 RMK A01 T01750080  RH  055%=      5-min Rain = 0
KTIS 221855Z 02018G23KT 17/08 A3006 RMK A01 T01740079  RH  055%=      5-min Rain = 0
KTIS 221900Z 03014G21KT 17/08 A3007 RMK A01 T01740079  RH  055%=      5-min Rain = 0
KTIS 221905Z 04017G22KT 18/08 A3007 RMK A01 T01750079  RH  055%=      5-min Rain = 0
KTIS 221910Z 04011G18KT 18/08 A3008 RMK A01 T01760079  RH  054%=      5-min Rain = 0
KTIS 221915Z 02012G18KT 18/08 A3008 RMK A01 T01770080  RH  055%=      5-min Rain = 0
KTIS 221920Z 03012KT 18/08 A3008 RMK A01 T01800081  RH  054%=      5-min Rain = 0
KTIS 221925Z 03014G20KT 18/08 A3007 RMK A01 T01810081  RH  053%=      5-min Rain = 0
KTIS 221930Z 04016G21KT 18/08 A3008 RMK A01 T01800080  RH  053%=      5-min Rain = 0
KTIS 221935Z 05014KT 18/08 A301 RMK A01 T01790080  RH  054%=      5-min Rain = 0
KTIS 221940Z 04016G23KT 18/08 A3008 RMK A01 T01800081  RH  054%=      5-min Rain = 0
KTIS 221945Z 04016KT 18/08 A3008 RMK A01 T01810080  RH  053%=      5-min Rain = 0
KTIS 221950Z 06012G18KT 18/08 A3009 RMK A01 T01830081  RH  053%=      5-min Rain = 0
KTIS 221955Z 05014KT 18/08 A3009 RMK A01 T01830081  RH  053%=      5-min Rain = 0
KTIS 222000Z 03014KT 18/08 A3008 RMK A01 T01820081  RH  053%=      5-min Rain = 0
KTIS 222005Z 03015G20KT 18/08 A3008 RMK A01 T01800080  RH  054%=      5-min Rain = 0
KTIS 222010Z 04017G23KT 18/08 A3008 RMK A01 T01790080  RH  054%=      5-min Rain = 0
KTIS 222015Z 04014G19KT 18/08 A3009 RMK A01 T01770079  RH  054%=      5-min Rain = 0
KTIS 222020Z 04011G16KT 18/08 A301 RMK A01 T01790081  RH  054%=      5-min Rain = 0
KTIS 222025Z 04013KT 18/08 A301 RMK A01 T01800081  RH  054%=      5-min Rain = 0
KTIS 222030Z 05014KT 18/08 A3009 RMK A01 T01800081  RH  054%=      5-min Rain = 0
KTIS 222035Z 05010G15KT 18/08 A3009 RMK A01 T01800082  RH  054%=      5-min Rain = 0
KTIS 222040Z 05013G19KT 18/08 A3008 RMK A01 T01820083  RH  054%=      5-min Rain = 0
KTIS 222045Z 05014G20KT 18/08 A3008 RMK A01 T01780081  RH  054%=      5-min Rain = 0
KTIS 222050Z 03015KT 18/08 A3008 RMK A01 T01770081  RH  055%=      5-min Rain = 0
KTIS 222055Z 04013KT 18/08 A3009 RMK A01 T01760081  RH  055%=      5-min Rain = 0
KTIS 222100Z 04013G21KT 18/08 A3008 RMK A01 T01770081  RH  055%=      5-min Rain = 0
KTIS 222105Z 02016G22KT 18/08 A3006 RMK A01 T01770081  RH  055%=      5-min Rain = 0
KTIS 222110Z 02016G21KT 18/08 A3007 RMK A01 T01770081  RH  055%=      5-min Rain = 0
KTIS 222115Z 04014G19KT 18/08 A3008 RMK A01 T01750081  RH  056%=      5-min Rain = 0
KTIS 222120Z 04013G18KT 18/08 A3009 RMK A01 T01750081  RH  056%=      5-min Rain = 0
KTIS 222125Z 04013G19KT 18/08 A3009 RMK A01 T01750081  RH  055%=      5-min Rain = 0
KTIS 222130Z 03017KT 18/08 A3007 RMK A01 T01750080  RH  055%=      5-min Rain = 0
KTIS 222135Z 03017G23KT 18/08 A3006 RMK A01 T01760081  RH  055%=      5-min Rain = 0
KTIS 222140Z 04016G22KT 17/09 A3007 RMK A01 T01740086  RH  058%=      5-min Rain = 0
KTIS 222145Z 05017KT 17/09 A3008 RMK A01 T01730086  RH  058%=      5-min Rain = 0
KTIS 222150Z 06015G20KT 18/08 A3008 RMK A01 T01760084  RH  057%=      5-min Rain = 0
KTIS 222155Z 06012G18KT 18/08 A301 RMK A01 T01760082  RH  056%=      5-min Rain = 0
KTIS 222200Z 05011KT 18/08 A301 RMK A01 T01750082  RH  056%=      5-min Rain = 0
KTIS 222205Z 04012G17KT 18/08 A301 RMK A01 T01750082  RH  056%=      5-min Rain = 0
KTIS 222210Z 04013KT 18/08 A301 RMK A01 T01750082  RH  056%=      5-min Rain = 0
KTIS 222215Z 03013G18KT 17/08 A3009 RMK A01 T01740082  RH  056%=      5-min Rain = 0
KTIS 222220Z 01014G20KT 17/09 A3008 RMK A01 T01690085  RH  059%=      5-min Rain = 0
KTIS 222225Z 02015G20KT 17/09 A3007 RMK A01 T01660088  RH  062%=      5-min Rain = 0
KTIS 222230Z 01014G19KT 17/09 A3007 RMK A01 T01650090  RH  063%=      5-min Rain = 0
KTIS 222235Z 02013G19KT 16/09 A3007 RMK A01 T01630091  RH  064%=      5-min Rain = 0
KTIS 222240Z 03013G18KT 16/09 A3007 RMK A01 T01610093  RH  066%=      5-min Rain = 0
KTIS 222245Z 03013G21KT 16/09 A3007 RMK A01 T01610092  RH  066%=      5-min Rain = 0
KTIS 222250Z 04011G18KT 16/09 A3008 RMK A01 T01610092  RH  066%=      5-min Rain = 0
KTIS 222255Z 06010KT 16/09 A301 RMK A01 T01610092  RH  066%=      5-min Rain = 0
KTIS 222300Z 04010KT 16/09 A301 RMK A01 T01600092  RH  066%=      5-min Rain = 0
KTIS 222305Z 05010KT 16/09 A301 RMK A01 T01580094  RH  068%=      5-min Rain = 0
KTIS 222310Z 06010KT 16/10 A3011 RMK A01 T01550095  RH  069%=      5-min Rain = 0
KTIS 222315Z 06010KT 15/10 A3011 RMK A01 T01530098  RH  072%=      5-min Rain = 0
KTIS 222320Z 06009KT 15/10 A3012 RMK A01 T01490102  RH  076%=      5-min Rain = 0
KTIS 222325Z 06011KT 15/10 A3012 RMK A01 T01450102  RH  078%=      5-min Rain = 0
KTIS 222330Z 06011KT 14/10 A3012 RMK A01 T01430103  RH  080%=      5-min Rain = 0
KTIS 222335Z 05010KT 14/11 A3011 RMK A01 T01400105  RH  082%=      5-min Rain = 0
KTIS 222340Z 04011KT 14/11 A3011 RMK A01 T01380105  RH  083%=      5-min Rain = 0.01
KTIS 222345Z 03011KT 14/11 A301 RMK A01 T01350106  RH  086%=      5-min Rain = 0.01
KTIS 222350Z 03011KT 13/11 A301 RMK A01 T01330107  RH  087%=      5-min Rain = 0
KTIS 222355Z 02012KT 13/11 A3009 RMK A01 T01320108  RH  088%=      5-min Rain = 0.01
KTIS 230000Z 02012KT 13/11 A3009 RMK A01 T01320107  RH  088%=      5-min Rain = 0.01
KTIS 230005Z 02011G16KT 13/11 A3009 RMK A01 T01320107  RH  088%=      5-min Rain = 0
KTIS 230010Z 02011G16KT 13/11 A3009 RMK A01 T01330107  RH  087%=      5-min Rain = 0
KTIS 230015Z 02010KT 13/11 A3009 RMK A01 T01330106  RH  087%=      5-min Rain = 0
KTIS 230020Z 02011KT 13/11 A3008 RMK A01 T01330106  RH  087%=      5-min Rain = 0
KTIS 230025Z 02010KT 13/11 A3009 RMK A01 T01330106  RH  087%=      5-min Rain = 0
KTIS 230030Z 03009KT 13/11 A3009 RMK A01 T01310107  RH  088%=      5-min Rain = 0.01
KTIS 230035Z 03009KT 13/11 A3009 RMK A01 T01300107  RH  089%=      5-min Rain = 0
KTIS 230040Z 03008KT 13/11 A3009 RMK A01 T01310108  RH  089%=      5-min Rain = 0
KTIS 230045Z 03008KT 13/11 A3009 RMK A01 T01310108  RH  089%=      5-min Rain = 0
KTIS 230050Z 03008KT 13/11 A3009 RMK A01 T01310108  RH  089%=      5-min Rain = 0.01
KTIS 230055Z 04009KT 13/11 A3009 RMK A01 T01310109  RH  090%=      5-min Rain = 0
KTIS 230100Z 04010KT 13/11 A3009 RMK A01 T01300109  RH  090%=      5-min Rain = 0
KTIS 230105Z 04010KT 13/11 A3008 RMK A01 T01300109  RH  091%=      5-min Rain = 0
KTIS 230110Z 04010KT 13/11 A3008 RMK A01 T01290109  RH  091%=      5-min Rain = 0
KTIS 230115Z 05011KT 13/11 A3008 RMK A01 T01290109  RH  091%=      5-min Rain = 0
KTIS 230120Z 05010KT 13/11 A3009 RMK A01 T01280108  RH  091%=      5-min Rain = 0
KTIS 230125Z 05010KT 13/11 A3009 RMK A01 T01280108  RH  091%=      5-min Rain = 0
KTIS 230130Z 05010KT 13/11 A3009 RMK A01 T01270107  RH  091%=      5-min Rain = 0
KTIS 230135Z 04011KT 13/11 A3008 RMK A01 T01260106  RH  091%=      5-min Rain = 0
KTIS 230140Z 04010KT 13/11 A3008 RMK A01 T01260106  RH  091%=      5-min Rain = 0
KTIS 230145Z 03009KT 13/11 A3008 RMK A01 T01250107  RH  092%=      5-min Rain = 0
KTIS 230150Z 03008KT 13/11 A3008 RMK A01 T01250107  RH  092%=      5-min Rain = 0
KTIS 230155Z 03008KT 13/11 A3008 RMK A01 T01250108  RH  092%=      5-min Rain = 0
KTIS 230200Z 02008KT 13/11 A3007 RMK A01 T01250107  RH  092%=      5-min Rain = 0
KTIS 230205Z 02009KT 12/11 A3007 RMK A01 T01240106  RH  092%=      5-min Rain = 0
KTIS 230210Z 02009KT 12/10 A3007 RMK A01 T01230104  RH  091%=      5-min Rain = 0
KTIS 230215Z 02009KT 12/10 A3007 RMK A01 T01230102  RH  090%=      5-min Rain = 0
KTIS 230220Z 02007KT 12/10 A3007 RMK A01 T01230102  RH  090%=      5-min Rain = 0
KTIS 230225Z 02007KT 12/10 A3008 RMK A01 T01220101  RH  090%=      5-min Rain = 0
KTIS 230230Z 01006KT 12/10 A3008 RMK A01 T01220102  RH  091%=      5-min Rain = 0
KTIS 230235Z 01006KT 12/10 A3008 RMK A01 T01220102  RH  091%=      5-min Rain = 0
KTIS 230240Z 02007KT 12/10 A3009 RMK A01 T01220102  RH  090%=      5-min Rain = 0
KTIS 230245Z 02006KT 12/10 A3009 RMK A01 T01230101  RH  090%=      5-min Rain = 0
KTIS 230250Z 02005KT 12/10 A301 RMK A01 T01220101  RH  090%=      5-min Rain = 0.01
KTIS 230255Z 02004KT 12/10 A3011 RMK A01 T01220102  RH  090%=      5-min Rain = 0.01
KTIS 230300Z 02003KT 12/10 A3012 RMK A01 T01210102  RH  091%=      5-min Rain = 0.01
KTIS 230305Z 03003KT 12/10 A3012 RMK A01 T01200102  RH  092%=      5-min Rain = 0.01
KTIS 230310Z 05003KT 12/10 A3013 RMK A01 T01200103  RH  092%=      5-min Rain = 0.01
KTIS 230315Z 08005KT 12/10 A3013 RMK A01 T01200103  RH  093%=      5-min Rain = 0.01
KTIS 230320Z 07005KT 12/10 A3013 RMK A01 T01190104  RH  093%=      5-min Rain = 0.02
KTIS 230325Z 07006KT 12/10 A3013 RMK A01 T01190104  RH  094%=      5-min Rain = 0
KTIS 230330Z 05005KT 12/10 A3012 RMK A01 T01180104  RH  094%=      5-min Rain = 0
KTIS 230335Z 04005KT 12/10 A3012 RMK A01 T01180104  RH  094%=      5-min Rain = 0
KTIS 230340Z 03006KT 12/10 A3011 RMK A01 T01180104  RH  095%=      5-min Rain = 0
KTIS 230345Z 03007KT 12/10 A3011 RMK A01 T01180104  RH  095%=      5-min Rain = 0
KTIS 230350Z 04008KT 12/11 A3011 RMK A01 T01180105  RH  095%=      5-min Rain = 0.01
KTIS 230355Z 04009KT 12/10 A301 RMK A01 T01170104  RH  095%=      5-min Rain = 0.01
KTIS 230400Z 03010KT 12/10 A3009 RMK A01 T01170104  RH  095%=      5-min Rain = 0.01
KTIS 230405Z 02012KT 12/10 A3008 RMK A01 T01160104  RH  095%=      5-min Rain = 0
KTIS 230410Z 01012G17KT 12/10 A3008 RMK A01 T01160104  RH  096%=      5-min Rain = 0
KTIS 230415Z 02012G17KT 12/10 A3007 RMK A01 T01150103  RH  095%=      5-min Rain = 0
KTIS 230420Z 02012G17KT 12/10 A3007 RMK A01 T01150103  RH  095%=      5-min Rain = 0
KTIS 230425Z 01011G18KT 11/10 A3007 RMK A01 T01140102  RH  095%=      5-min Rain = 0
KTIS 230430Z 01010G15KT 11/10 A3007 RMK A01 T01140102  RH  095%=      5-min Rain = 0
KTIS 230435Z 02012G17KT 11/10 A3008 RMK A01 T01140101  RH  095%=      5-min Rain = 0
KTIS 230440Z 02010KT 11/10 A3008 RMK A01 T01140101  RH  095%=      5-min Rain = 0
KTIS 230445Z 03008KT 11/10 A3008 RMK A01 T01140101  RH  095%=      5-min Rain = 0
KTIS 230450Z 03009KT 11/10 A3008 RMK A01 T01130100  RH  095%=      5-min Rain = 0
KTIS 230455Z 04010KT 11/10 A3008 RMK A01 T01130100  RH  095%=      5-min Rain = 0

Page generated in 0.0092 seconds.